createdAt,value
2019-04-20T00:01:12.535Z,39.85
2019-04-20T00:06:15.445Z,39.86
2019-04-20T00:11:26.230Z,39.88
2019-04-20T00:16:25.167Z,39.87
2019-04-20T00:21:42.847Z,39.93
2019-04-20T00:27:15.888Z,39.93
2019-04-20T00:32:00.556Z,39.95
2019-04-20T00:36:54.044Z,39.97
2019-04-20T00:42:03.433Z,39.99
2019-04-20T00:47:13.337Z,40.00
2019-04-20T00:52:35.331Z,40.00
2019-04-20T00:57:22.452Z,40.01
2019-04-20T01:02:32.715Z,40.02
2019-04-20T01:07:39.404Z,40.05
2019-04-20T01:12:39.218Z,40.05
2019-04-20T01:17:43.062Z,40.05
2019-04-20T01:22:55.971Z,40.07
2019-04-20T01:28:08.113Z,40.08
2019-04-20T01:33:14.866Z,40.12
2019-04-20T01:38:22.296Z,40.10
2019-04-20T01:43:07.970Z,40.12
2019-04-20T01:48:15.110Z,40.10
2019-04-20T01:53:30.207Z,40.09
2019-04-20T01:58:49.178Z,40.10
2019-04-20T02:03:44.819Z,40.13
2019-04-20T02:08:46.286Z,40.11
2019-04-20T02:13:56.616Z,40.12
2019-04-20T02:19:10.812Z,40.12
2019-04-20T02:24:04.253Z,40.13
2019-04-20T02:29:33.687Z,40.13
2019-04-20T02:34:51.286Z,40.13
2019-04-20T02:45:05.116Z,40.08
2019-04-20T02:55:10.847Z,40.08
2019-04-20T03:00:18.235Z,40.06
2019-04-20T03:04:50.916Z,40.05
2019-04-20T03:10:05.522Z,40.04
2019-04-20T03:15:11.179Z,40.04
2019-04-20T03:20:22.125Z,40.01
2019-04-20T03:25:49.725Z,40.01
2019-04-20T03:36:12.509Z,40.02
2019-04-20T03:41:01.176Z,40.03
2019-04-20T03:45:59.598Z,40.01
2019-04-20T03:51:23.612Z,40.01
2019-04-20T03:56:32.098Z,40.00
2019-04-20T04:02:04.534Z,40.00
2019-04-20T04:06:33.520Z,40.00
2019-04-20T04:11:47.152Z,40.01
2019-04-20T04:16:42.195Z,39.99
2019-04-20T04:21:52.427Z,40.01
2019-04-20T04:27:00.475Z,40.01
2019-04-20T04:32:20.675Z,40.02
2019-04-20T04:37:17.603Z,40.00
2019-04-20T04:42:22.341Z,39.98
2019-04-20T04:47:09.839Z,39.96
2019-04-20T04:52:15.515Z,39.99
2019-04-20T04:57:16.203Z,39.98
2019-04-20T05:02:23.623Z,39.99
2019-04-20T05:07:40.049Z,39.97
2019-04-20T05:12:34.159Z,39.98
2019-04-20T05:17:57.333Z,39.99
2019-04-20T05:23:06.078Z,39.99
2019-04-20T05:28:18.049Z,39.97
2019-04-20T05:33:21.368Z,39.98
2019-04-20T05:38:41.764Z,39.98
2019-04-20T05:43:38.712Z,39.99
2019-04-20T05:48:50.973Z,40.00
2019-04-20T05:53:50.481Z,39.98
2019-04-20T05:58:56.965Z,39.99
2019-04-20T06:04:01.650Z,39.99
2019-04-20T06:09:12.361Z,39.99
2019-04-20T06:14:07.137Z,39.94
2019-04-20T06:19:26.386Z,39.90
2019-04-20T06:29:26.380Z,39.85
2019-04-20T06:39:49.364Z,39.77
2019-04-20T06:44:46.386Z,39.75
2019-04-20T06:49:52.501Z,39.67
2019-04-20T06:55:06.937Z,39.40
2019-04-20T07:00:15.453Z,35.33
2019-04-20T07:05:22.541Z,32.15
2019-04-20T07:10:44.026Z,30.13
2019-04-20T07:15:30.210Z,30.11
2019-04-20T07:21:12.661Z,30.37
2019-04-20T07:26:15.101Z,30.51
2019-04-20T07:31:08.464Z,30.74
2019-04-20T07:36:22.661Z,30.96
2019-04-20T07:41:26.325Z,31.15
2019-04-20T07:46:43.954Z,31.10
2019-04-20T07:51:16.138Z,31.47
2019-04-20T07:56:37.525Z,31.60
2019-04-20T08:01:54.753Z,31.89
2019-04-20T08:06:42.167Z,32.49
2019-04-20T08:12:02.725Z,32.93
2019-04-20T08:17:14.096Z,33.37
2019-04-20T08:22:15.537Z,33.73
2019-04-20T08:27:07.973Z,34.07
2019-04-20T08:32:43.904Z,34.32
2019-04-20T08:38:01.816Z,34.56
2019-04-20T08:43:02.889Z,34.79
2019-04-20T08:48:02.788Z,34.93
2019-04-20T08:53:15.909Z,35.08
2019-04-20T08:57:49.879Z,35.24
2019-04-20T09:03:00.917Z,35.34
2019-04-20T09:08:08.118Z,35.51
2019-04-20T09:13:15.890Z,35.55
2019-04-20T09:18:31.272Z,35.63
2019-04-20T09:23:42.288Z,35.70
2019-04-20T09:28:56.762Z,35.77
2019-04-20T09:34:07.524Z,35.86
2019-04-20T09:39:11.456Z,35.95
2019-04-20T09:44:04.923Z,36.03
2019-04-20T09:49:20.100Z,36.08
2019-04-20T09:54:31.019Z,36.00
2019-04-20T09:59:38.263Z,35.96
2019-04-20T10:04:24.098Z,35.90
2019-04-20T10:09:32.611Z,35.98
2019-04-20T10:14:33.147Z,36.07
2019-04-20T10:19:39.416Z,36.07
2019-04-20T10:24:42.433Z,36.22
2019-04-20T10:29:45.986Z,36.47
2019-04-20T10:34:50.634Z,36.05
2019-04-20T10:39:54.488Z,35.61
2019-04-20T10:45:00.359Z,35.31
2019-04-20T10:50:05.287Z,34.73
2019-04-20T10:55:10.252Z,34.32
2019-04-20T11:00:15.644Z,33.91
2019-04-20T11:05:20.404Z,33.59
2019-04-20T11:10:28.587Z,33.34
2019-04-20T11:15:30.385Z,33.11
2019-04-20T11:20:35.263Z,32.97
2019-04-20T11:25:40.031Z,32.75
2019-04-20T11:30:43.890Z,32.44
2019-04-20T11:35:48.563Z,32.29
2019-04-20T11:41:03.834Z,32.81
2019-04-20T11:45:58.457Z,33.13
2019-04-20T11:51:03.416Z,33.26
2019-04-20T11:56:14.631Z,33.33
2019-04-20T12:01:36.921Z,33.26
2019-04-20T12:06:34.821Z,33.30
2019-04-20T12:11:53.493Z,33.26
2019-04-20T12:16:43.805Z,33.12
2019-04-20T12:21:47.550Z,33.08
2019-04-20T12:26:51.157Z,33.29
2019-04-20T12:31:59.133Z,33.32
2019-04-20T12:37:00.746Z,33.47
2019-04-20T12:42:07.569Z,33.62
2019-04-20T12:47:10.058Z,33.74
2019-04-20T12:52:14.450Z,33.90
2019-04-20T12:57:18.595Z,34.00
2019-04-20T13:02:23.176Z,34.09
2019-04-20T13:07:27.101Z,34.11
2019-04-20T13:12:42.578Z,33.99
2019-04-20T13:17:47.986Z,33.81
2019-04-20T13:22:51.239Z,33.88
2019-04-20T13:27:54.845Z,33.95
2019-04-20T13:32:59.443Z,33.87
2019-04-20T13:38:04.419Z,33.71
2019-04-20T13:43:08.120Z,33.56
2019-04-20T13:48:12.848Z,33.64
2019-04-20T13:53:17.043Z,33.53
2019-04-20T13:58:38.910Z,33.20
2019-04-20T14:03:44.915Z,32.71
2019-04-20T14:08:49.462Z,32.18
2019-04-20T14:13:56.804Z,32.05
2019-04-20T14:18:58.797Z,31.95
2019-04-20T14:24:04.191Z,32.09
2019-04-20T14:29:07.504Z,32.05
2019-04-20T14:34:11.027Z,31.98
2019-04-20T14:39:14.440Z,31.90
2019-04-20T14:44:17.902Z,32.16
2019-04-20T14:49:21.366Z,32.33
2019-04-20T14:54:25.576Z,32.50
2019-04-20T14:59:31.655Z,32.41
2019-04-20T15:04:36.949Z,32.45
2019-04-20T15:09:40.729Z,32.59
2019-04-20T15:14:44.930Z,32.67
2019-04-20T15:19:53.771Z,32.69
2019-04-20T15:24:57.710Z,32.69
2019-04-20T15:30:02.717Z,32.58
2019-04-20T15:35:08.916Z,32.34
2019-04-20T15:40:13.125Z,32.29
2019-04-20T15:45:16.967Z,32.14
2019-04-20T15:50:20.503Z,31.48
2019-04-20T15:55:27.459Z,30.99
2019-04-20T16:00:29.153Z,30.82
2019-04-20T16:05:45.038Z,31.00
2019-04-20T16:10:48.828Z,31.09
2019-04-20T16:15:53.710Z,31.20
2019-04-20T16:21:05.531Z,31.03
2019-04-20T16:26:17.593Z,30.90
2019-04-20T16:31:22.676Z,30.72
2019-04-20T16:36:26.444Z,31.02
2019-04-20T16:41:30.636Z,32.24
2019-04-20T16:46:34.296Z,32.24
2019-04-20T16:51:38.812Z,32.85
2019-04-20T16:56:42.691Z,33.21
2019-04-20T17:01:46.639Z,33.55
2019-04-20T17:07:08.139Z,33.77
2019-04-20T17:12:12.055Z,34.03
2019-04-20T17:17:15.795Z,34.20
2019-04-20T17:22:19.334Z,34.40
2019-04-20T17:27:27.158Z,34.58
2019-04-20T17:32:33.575Z,34.68
2019-04-20T17:37:41.879Z,34.71
2019-04-20T17:42:53.050Z,34.79
2019-04-20T17:48:07.348Z,34.83
2019-04-20T17:53:07.451Z,34.85
2019-04-20T17:57:59.412Z,34.91
2019-04-20T18:03:24.535Z,34.81
2019-04-20T18:08:31.116Z,34.62
2019-04-20T18:13:21.727Z,34.39
2019-04-20T18:18:39.852Z,34.29
2019-04-20T18:23:37.494Z,34.25
2019-04-20T18:28:58.977Z,34.14
2019-04-20T18:33:42.583Z,34.13
2019-04-20T18:38:55.315Z,34.10
2019-04-20T18:43:55.990Z,34.14
2019-04-20T18:49:13.622Z,34.34
2019-04-20T18:54:08.442Z,34.46
2019-04-20T18:59:07.163Z,34.59
2019-04-20T19:04:12.073Z,34.67
2019-04-20T19:09:21.474Z,34.72
2019-04-20T19:14:40.093Z,34.89
2019-04-20T19:19:48.475Z,34.89
2019-04-20T19:24:49.818Z,34.89
2019-04-20T19:30:07.128Z,34.95
2019-04-20T19:35:06.842Z,35.01
2019-04-20T19:40:15.950Z,35.00
2019-04-20T19:45:37.285Z,35.03
2019-04-20T19:50:57.640Z,35.00
2019-04-20T19:55:40.515Z,35.03
2019-04-20T20:00:48.416Z,35.07
2019-04-20T20:05:52.355Z,35.12
2019-04-20T20:10:58.222Z,35.16
2019-04-20T20:16:09.488Z,35.18
2019-04-20T20:21:21.854Z,35.20
2019-04-20T20:26:22.381Z,35.24
2019-04-20T20:31:23.511Z,35.27
2019-04-20T20:36:23.853Z,35.30
2019-04-20T20:41:31.954Z,35.32
2019-04-20T20:46:39.571Z,35.48
2019-04-20T20:51:55.901Z,35.64
2019-04-20T20:56:52.203Z,35.80
2019-04-20T21:01:54.043Z,35.93
2019-04-20T21:06:52.804Z,36.02
2019-04-20T21:12:00.650Z,36.14
2019-04-20T21:17:10.263Z,36.28
2019-04-20T21:22:14.355Z,36.39
2019-04-20T21:27:16.698Z,36.54
2019-04-20T21:32:19.735Z,36.64
2019-04-20T21:37:23.990Z,36.64
2019-04-20T21:42:29.064Z,37.03
2019-04-20T21:47:36.293Z,37.03
2019-04-20T21:52:43.048Z,36.72
2019-04-20T21:57:50.162Z,36.78
2019-04-20T22:02:56.208Z,36.84
2019-04-20T22:08:00.592Z,36.95
2019-04-20T22:13:00.762Z,36.99
2019-04-20T22:18:09.300Z,37.07
2019-04-20T22:23:23.186Z,37.11
2019-04-20T22:28:16.021Z,37.17
2019-04-20T22:33:40.002Z,37.21
2019-04-20T22:39:00.251Z,37.23
2019-04-20T22:44:11.606Z,37.28
2019-04-20T22:49:28.134Z,37.35
2019-04-20T22:54:34.548Z,37.35
2019-04-20T22:59:25.414Z,37.36
2019-04-20T23:04:26.690Z,37.42
2019-04-20T23:09:34.123Z,37.43
2019-04-20T23:14:36.352Z,37.48
2019-04-20T23:19:48.378Z,37.51
2019-04-20T23:24:45.182Z,37.58
2019-04-20T23:29:49.186Z,37.55
2019-04-20T23:34:59.068Z,37.56
2019-04-20T23:39:58.041Z,37.66
2019-04-20T23:45:13.567Z,37.86
2019-04-20T23:50:38.219Z,37.95
2019-04-20T23:55:23.755Z,38.00
